sensor_id;sensor_type;location;lat;lon;timestamp;P1;durP1;ratioP1;P2;durP2;ratioP2
67140;SDS011;54058;52.010;5.546;2022-10-16T00:00:37;8.50;;;2.30;;
67140;SDS011;54058;52.010;5.546;2022-10-16T00:03:05;5.43;;;2.00;;
67140;SDS011;54058;52.010;5.546;2022-10-16T00:05:32;11.38;;;2.40;;
67140;SDS011;54058;52.010;5.546;2022-10-16T00:07:57;5.40;;;2.15;;
67140;SDS011;54058;52.010;5.546;2022-10-16T00:10:23;6.25;;;2.53;;
67140;SDS011;54058;52.010;5.546;2022-10-16T00:12:49;8.27;;;1.80;;
67140;SDS011;54058;52.010;5.546;2022-10-16T00:15:14;6.13;;;1.83;;
67140;SDS011;54058;52.010;5.546;2022-10-16T00:17:40;7.60;;;2.00;;
67140;SDS011;54058;52.010;5.546;2022-10-16T00:20:06;7.32;;;2.50;;
67140;SDS011;54058;52.010;5.546;2022-10-16T00:22:32;3.45;;;1.90;;
67140;SDS011;54058;52.010;5.546;2022-10-16T00:24:58;3.65;;;1.80;;
67140;SDS011;54058;52.010;5.546;2022-10-16T00:27:23;2.72;;;1.65;;
67140;SDS011;54058;52.010;5.546;2022-10-16T00:29:52;8.10;;;2.20;;
67140;SDS011;54058;52.010;5.546;2022-10-16T00:32:18;3.33;;;2.08;;
67140;SDS011;54058;52.010;5.546;2022-10-16T00:34:44;3.60;;;1.77;;
67140;SDS011;54058;52.010;5.546;2022-10-16T00:37:11;6.07;;;2.03;;
67140;SDS011;54058;52.010;5.546;2022-10-16T00:39:36;7.38;;;1.90;;
67140;SDS011;54058;52.010;5.546;2022-10-16T00:42:02;5.07;;;1.90;;
67140;SDS011;54058;52.010;5.546;2022-10-16T00:44:42;5.00;;;2.10;;
67140;SDS011;54058;52.010;5.546;2022-10-16T00:52:41;5.05;;;1.83;;
67140;SDS011;54058;52.010;5.546;2022-10-16T00:55:11;3.08;;;1.90;;
67140;SDS011;54058;52.010;5.546;2022-10-16T00:57:37;4.32;;;1.88;;
67140;SDS011;54058;52.010;5.546;2022-10-16T01:00:04;3.38;;;1.77;;
67140;SDS011;54058;52.010;5.546;2022-10-16T01:02:32;4.60;;;1.73;;
67140;SDS011;54058;52.010;5.546;2022-10-16T01:04:58;3.78;;;1.73;;
67140;SDS011;54058;52.010;5.546;2022-10-16T01:07:33;3.80;;;2.25;;
67140;SDS011;54058;52.010;5.546;2022-10-16T01:12:57;4.68;;;1.90;;
67140;SDS011;54058;52.010;5.546;2022-10-16T01:16:29;5.85;;;1.92;;
67140;SDS011;54058;52.010;5.546;2022-10-16T01:18:43;3.20;;;1.90;;
67140;SDS011;54058;52.010;5.546;2022-10-16T01:24:27;4.60;;;2.35;;
67140;SDS011;54058;52.010;5.546;2022-10-16T01:30:02;4.13;;;2.13;;
67140;SDS011;54058;52.010;5.546;2022-10-16T01:32:50;3.80;;;1.92;;
67140;SDS011;54058;52.010;5.546;2022-10-16T01:35:29;4.15;;;1.90;;
67140;SDS011;54058;52.010;5.546;2022-10-16T01:38:05;3.83;;;2.42;;
67140;SDS011;54058;52.010;5.546;2022-10-16T01:40:38;5.20;;;2.33;;
67140;SDS011;54058;52.010;5.546;2022-10-16T01:43:11;5.25;;;2.40;;
67140;SDS011;54058;52.010;5.546;2022-10-16T01:45:39;8.25;;;2.25;;
67140;SDS011;54058;52.010;5.546;2022-10-16T01:48:09;3.47;;;1.95;;
67140;SDS011;54058;52.010;5.546;2022-10-16T01:50:38;4.18;;;2.13;;
67140;SDS011;54058;52.010;5.546;2022-10-16T01:53:06;4.05;;;1.92;;
67140;SDS011;54058;52.010;5.546;2022-10-16T01:55:37;4.47;;;2.03;;
67140;SDS011;54058;52.010;5.546;2022-10-16T01:58:08;6.88;;;2.22;;
67140;SDS011;54058;52.010;5.546;2022-10-16T02:00:37;7.78;;;2.83;;
67140;SDS011;54058;52.010;5.546;2022-10-16T02:03:04;4.20;;;1.85;;
67140;SDS011;54058;52.010;5.546;2022-10-16T02:05:37;4.10;;;2.10;;
67140;SDS011;54058;52.010;5.546;2022-10-16T02:08:10;5.13;;;1.95;;
67140;SDS011;54058;52.010;5.546;2022-10-16T02:10:36;2.22;;;1.88;;
67140;SDS011;54058;52.010;5.546;2022-10-16T02:13:07;2.47;;;1.87;;
67140;SDS011;54058;52.010;5.546;2022-10-16T02:15:37;7.22;;;1.92;;
67140;SDS011;54058;52.010;5.546;2022-10-16T02:18:03;3.13;;;1.73;;
67140;SDS011;54058;52.010;5.546;2022-10-16T02:20:32;10.57;;;2.05;;
67140;SDS011;54058;52.010;5.546;2022-10-16T02:23:01;5.63;;;2.03;;
67140;SDS011;54058;52.010;5.546;2022-10-16T02:25:32;7.40;;;2.17;;
67140;SDS011;54058;52.010;5.546;2022-10-16T02:28:02;3.53;;;1.90;;
67140;SDS011;54058;52.010;5.546;2022-10-16T02:32:57;4.30;;;2.05;;
67140;SDS011;54058;52.010;5.546;2022-10-16T02:35:26;3.40;;;2.08;;
67140;SDS011;54058;52.010;5.546;2022-10-16T02:37:52;3.00;;;2.05;;
67140;SDS011;54058;52.010;5.546;2022-10-16T02:40:20;3.63;;;1.95;;
67140;SDS011;54058;52.010;5.546;2022-10-16T02:42:49;7.80;;;2.30;;
67140;SDS011;54058;52.010;5.546;2022-10-16T02:45:19;4.32;;;1.90;;
67140;SDS011;54058;52.010;5.546;2022-10-16T02:47:45;5.28;;;2.22;;
67140;SDS011;54058;52.010;5.546;2022-10-16T02:50:11;2.92;;;2.00;;
67140;SDS011;54058;52.010;5.546;2022-10-16T02:52:37;4.78;;;1.88;;
67140;SDS011;54058;52.010;5.546;2022-10-16T02:55:03;7.78;;;2.83;;
67140;SDS011;54058;52.010;5.546;2022-10-16T02:57:29;3.78;;;1.85;;
67140;SDS011;54058;52.010;5.546;2022-10-16T02:59:55;2.45;;;2.10;;
67140;SDS011;54058;52.010;5.546;2022-10-16T03:02:20;6.05;;;2.03;;
67140;SDS011;54058;52.010;5.546;2022-10-16T03:04:46;5.57;;;2.03;;
67140;SDS011;54058;52.010;5.546;2022-10-16T03:07:11;8.02;;;1.85;;
67140;SDS011;54058;52.010;5.546;2022-10-16T03:09:37;4.60;;;1.95;;
67140;SDS011;54058;52.010;5.546;2022-10-16T03:12:02;2.28;;;1.80;;
67140;SDS011;54058;52.010;5.546;2022-10-16T03:14:28;3.25;;;2.33;;
67140;SDS011;54058;52.010;5.546;2022-10-16T03:16:54;8.23;;;2.30;;
67140;SDS011;54058;52.010;5.546;2022-10-16T03:19:20;6.13;;;2.20;;
67140;SDS011;54058;52.010;5.546;2022-10-16T03:21:45;2.10;;;1.70;;
67140;SDS011;54058;52.010;5.546;2022-10-16T03:24:11;2.85;;;2.28;;
67140;SDS011;54058;52.010;5.546;2022-10-16T03:26:37;6.22;;;2.33;;
67140;SDS011;54058;52.010;5.546;2022-10-16T03:29:02;2.08;;;1.77;;
67140;SDS011;54058;52.010;5.546;2022-10-16T03:31:29;3.10;;;2.03;;
67140;SDS011;54058;52.010;5.546;2022-10-16T03:33:54;8.47;;;2.17;;
67140;SDS011;54058;52.010;5.546;2022-10-16T03:36:21;3.95;;;2.25;;
67140;SDS011;54058;52.010;5.546;2022-10-16T03:38:46;3.53;;;1.70;;
67140;SDS011;54058;52.010;5.546;2022-10-16T03:41:12;7.40;;;1.90;;
67140;SDS011;54058;52.010;5.546;2022-10-16T03:43:37;3.85;;;1.95;;
67140;SDS011;54058;52.010;5.546;2022-10-16T03:46:03;2.22;;;2.00;;
67140;SDS011;54058;52.010;5.546;2022-10-16T03:48:29;5.93;;;1.73;;
67140;SDS011;54058;52.010;5.546;2022-10-16T03:50:54;3.60;;;1.85;;
67140;SDS011;54058;52.010;5.546;2022-10-16T03:53:20;2.25;;;1.85;;
67140;SDS011;54058;52.010;5.546;2022-10-16T03:55:46;4.13;;;1.95;;
67140;SDS011;54058;52.010;5.546;2022-10-16T03:58:11;2.35;;;1.83;;
67140;SDS011;54058;52.010;5.546;2022-10-16T04:00:41;4.78;;;1.70;;
67140;SDS011;54058;52.010;5.546;2022-10-16T04:03:07;7.32;;;1.85;;
67140;SDS011;54058;52.010;5.546;2022-10-16T04:05:33;2.42;;;1.88;;
67140;SDS011;54058;52.010;5.546;2022-10-16T04:07:58;3.25;;;1.90;;
67140;SDS011;54058;52.010;5.546;2022-10-16T04:10:24;5.07;;;2.15;;
67140;SDS011;54058;52.010;5.546;2022-10-16T04:12:49;3.95;;;1.60;;
67140;SDS011;54058;52.010;5.546;2022-10-16T04:15:15;2.40;;;1.90;;
67140;SDS011;54058;52.010;5.546;2022-10-16T04:17:41;2.85;;;1.63;;
67140;SDS011;54058;52.010;5.546;2022-10-16T04:20:06;2.80;;;1.50;;
67140;SDS011;54058;52.010;5.546;2022-10-16T04:22:32;6.57;;;1.95;;
67140;SDS011;54058;52.010;5.546;2022-10-16T04:24:58;3.88;;;1.67;;
67140;SDS011;54058;52.010;5.546;2022-10-16T04:27:23;2.65;;;1.40;;
67140;SDS011;54058;52.010;5.546;2022-10-16T04:29:49;1.92;;;1.55;;
67140;SDS011;54058;52.010;5.546;2022-10-16T04:32:14;8.15;;;1.92;;
67140;SDS011;54058;52.010;5.546;2022-10-16T04:34:40;1.70;;;1.60;;
67140;SDS011;54058;52.010;5.546;2022-10-16T04:37:06;4.15;;;1.80;;
67140;SDS011;54058;52.010;5.546;2022-10-16T04:39:32;3.45;;;1.35;;
67140;SDS011;54058;52.010;5.546;2022-10-16T04:41:57;2.60;;;2.03;;
67140;SDS011;54058;52.010;5.546;2022-10-16T04:44:23;5.25;;;1.73;;
67140;SDS011;54058;52.010;5.546;2022-10-16T04:46:52;1.80;;;1.60;;
67140;SDS011;54058;52.010;5.546;2022-10-16T04:49:17;2.90;;;1.45;;
67140;SDS011;54058;52.010;5.546;2022-10-16T04:51:43;4.53;;;1.83;;
67140;SDS011;54058;52.010;5.546;2022-10-16T04:54:09;1.83;;;1.50;;
67140;SDS011;54058;52.010;5.546;2022-10-16T04:56:34;2.67;;;1.70;;
67140;SDS011;54058;52.010;5.546;2022-10-16T04:59:07;7.47;;;1.88;;
67140;SDS011;54058;52.010;5.546;2022-10-16T05:01:33;6.15;;;1.50;;
67140;SDS011;54058;52.010;5.546;2022-10-16T05:03:59;3.58;;;1.65;;
67140;SDS011;54058;52.010;5.546;2022-10-16T05:06:25;7.60;;;1.80;;
67140;SDS011;54058;52.010;5.546;2022-10-16T05:08:50;2.88;;;1.60;;
67140;SDS011;54058;52.010;5.546;2022-10-16T05:11:16;2.83;;;1.65;;
67140;SDS011;54058;52.010;5.546;2022-10-16T05:13:41;7.30;;;1.35;;
67140;SDS011;54058;52.010;5.546;2022-10-16T05:16:07;1.48;;;1.38;;
67140;SDS011;54058;52.010;5.546;2022-10-16T05:18:32;2.47;;;1.42;;
67140;SDS011;54058;52.010;5.546;2022-10-16T05:20:58;1.75;;;1.45;;
67140;SDS011;54058;52.010;5.546;2022-10-16T05:23:24;2.08;;;1.80;;
67140;SDS011;54058;52.010;5.546;2022-10-16T05:25:53;2.25;;;1.70;;
67140;SDS011;54058;52.010;5.546;2022-10-16T05:28:20;5.45;;;2.05;;
67140;SDS011;54058;52.010;5.546;2022-10-16T05:30:46;1.95;;;1.40;;
67140;SDS011;54058;52.010;5.546;2022-10-16T05:33:12;2.75;;;1.55;;
67140;SDS011;54058;52.010;5.546;2022-10-16T05:35:38;8.33;;;1.77;;
67140;SDS011;54058;52.010;5.546;2022-10-16T05:38:03;2.67;;;2.00;;
67140;SDS011;54058;52.010;5.546;2022-10-16T05:40:29;6.93;;;1.80;;
67140;SDS011;54058;52.010;5.546;2022-10-16T05:42:55;3.00;;;1.67;;
67140;SDS011;54058;52.010;5.546;2022-10-16T05:45:21;5.15;;;1.80;;
67140;SDS011;54058;52.010;5.546;2022-10-16T05:47:46;1.90;;;1.50;;
67140;SDS011;54058;52.010;5.546;2022-10-16T05:50:12;3.67;;;1.70;;
67140;SDS011;54058;52.010;5.546;2022-10-16T05:52:37;4.65;;;1.65;;
67140;SDS011;54058;52.010;5.546;2022-10-16T05:55:03;3.92;;;2.10;;
67140;SDS011;54058;52.010;5.546;2022-10-16T05:57:29;3.72;;;1.90;;
67140;SDS011;54058;52.010;5.546;2022-10-16T05:59:55;3.90;;;1.60;;
67140;SDS011;54058;52.010;5.546;2022-10-16T06:02:21;5.78;;;1.80;;
67140;SDS011;54058;52.010;5.546;2022-10-16T06:04:46;8.23;;;2.05;;
67140;SDS011;54058;52.010;5.546;2022-10-16T06:07:12;4.15;;;1.75;;
67140;SDS011;54058;52.010;5.546;2022-10-16T06:09:37;2.35;;;1.75;;
67140;SDS011;54058;52.010;5.546;2022-10-16T06:12:03;10.98;;;1.98;;
67140;SDS011;54058;52.010;5.546;2022-10-16T06:14:29;2.85;;;1.80;;
67140;SDS011;54058;52.010;5.546;2022-10-16T06:16:54;3.78;;;1.70;;
67140;SDS011;54058;52.010;5.546;2022-10-16T06:19:20;2.10;;;1.42;;
67140;SDS011;54058;52.010;5.546;2022-10-16T06:21:45;4.88;;;1.98;;
67140;SDS011;54058;52.010;5.546;2022-10-16T06:24:11;11.45;;;2.40;;
67140;SDS011;54058;52.010;5.546;2022-10-16T06:26:37;5.88;;;1.67;;
67140;SDS011;54058;52.010;5.546;2022-10-16T06:29:03;1.98;;;1.25;;
67140;SDS011;54058;52.010;5.546;2022-10-16T06:31:29;1.90;;;1.60;;
67140;SDS011;54058;52.010;5.546;2022-10-16T06:33:58;4.00;;;1.95;;
67140;SDS011;54058;52.010;5.546;2022-10-16T06:36:24;2.77;;;1.43;;
67140;SDS011;54058;52.010;5.546;2022-10-16T06:38:50;2.00;;;1.67;;
67140;SDS011;54058;52.010;5.546;2022-10-16T06:41:17;2.30;;;1.70;;
67140;SDS011;54058;52.010;5.546;2022-10-16T06:43:44;2.38;;;1.80;;
67140;SDS011;54058;52.010;5.546;2022-10-16T06:46:11;2.65;;;1.70;;
67140;SDS011;54058;52.010;5.546;2022-10-16T06:51:04;4.30;;;1.80;;
67140;SDS011;54058;52.010;5.546;2022-10-16T06:53:31;5.32;;;1.90;;
67140;SDS011;54058;52.010;5.546;2022-10-16T06:56:01;4.13;;;1.90;;
67140;SDS011;54058;52.010;5.546;2022-10-16T06:58:42;4.28;;;1.50;;
67140;SDS011;54058;52.010;5.546;2022-10-16T07:01:08;1.90;;;1.33;;
67140;SDS011;54058;52.010;5.546;2022-10-16T07:03:38;2.78;;;1.65;;
67140;SDS011;54058;52.010;5.546;2022-10-16T07:06:05;2.28;;;1.40;;
67140;SDS011;54058;52.010;5.546;2022-10-16T07:08:32;4.55;;;1.77;;
67140;SDS011;54058;52.010;5.546;2022-10-16T07:11:03;6.47;;;1.80;;
67140;SDS011;54058;52.010;5.546;2022-10-16T07:13:34;7.18;;;2.28;;
67140;SDS011;54058;52.010;5.546;2022-10-16T07:16:04;4.93;;;1.92;;
67140;SDS011;54058;52.010;5.546;2022-10-16T07:18:32;5.70;;;1.58;;
67140;SDS011;54058;52.010;5.546;2022-10-16T07:21:05;5.10;;;1.52;;
67140;SDS011;54058;52.010;5.546;2022-10-16T07:23:32;2.25;;;1.52;;
67140;SDS011;54058;52.010;5.546;2022-10-16T07:25:57;2.45;;;1.90;;
67140;SDS011;54058;52.010;5.546;2022-10-16T07:28:23;2.70;;;1.70;;
67140;SDS011;54058;52.010;5.546;2022-10-16T07:30:49;7.82;;;1.70;;
67140;SDS011;54058;52.010;5.546;2022-10-16T07:33:14;3.20;;;1.70;;
67140;SDS011;54058;52.010;5.546;2022-10-16T07:35:53;3.55;;;1.50;;
67140;SDS011;54058;52.010;5.546;2022-10-16T07:38:19;5.45;;;1.63;;
67140;SDS011;54058;52.010;5.546;2022-10-16T07:40:46;8.02;;;2.08;;
67140;SDS011;54058;52.010;5.546;2022-10-16T07:43:12;2.75;;;1.70;;
67140;SDS011;54058;52.010;5.546;2022-10-16T07:45:40;7.72;;;2.15;;
67140;SDS011;54058;52.010;5.546;2022-10-16T07:48:14;3.72;;;1.80;;
67140;SDS011;54058;52.010;5.546;2022-10-16T07:50:41;4.25;;;1.83;;
67140;SDS011;54058;52.010;5.546;2022-10-16T07:53:06;2.80;;;1.70;;
67140;SDS011;54058;52.010;5.546;2022-10-16T07:55:32;5.32;;;1.40;;
67140;SDS011;54058;52.010;5.546;2022-10-16T07:57:58;5.53;;;1.90;;
67140;SDS011;54058;52.010;5.546;2022-10-16T08:00:24;2.42;;;1.73;;
67140;SDS011;54058;52.010;5.546;2022-10-16T08:02:49;3.38;;;1.73;;
67140;SDS011;54058;52.010;5.546;2022-10-16T08:05:15;12.00;;;2.65;;
67140;SDS011;54058;52.010;5.546;2022-10-16T08:07:40;3.75;;;2.30;;
67140;SDS011;54058;52.010;5.546;2022-10-16T08:10:06;7.03;;;2.17;;
67140;SDS011;54058;52.010;5.546;2022-10-16T08:12:36;6.88;;;2.08;;
67140;SDS011;54058;52.010;5.546;2022-10-16T08:15:02;5.25;;;2.47;;
67140;SDS011;54058;52.010;5.546;2022-10-16T08:17:28;7.88;;;2.33;;
67140;SDS011;54058;52.010;5.546;2022-10-16T08:19:54;9.32;;;2.28;;
67140;SDS011;54058;52.010;5.546;2022-10-16T08:22:19;11.38;;;2.67;;
67140;SDS011;54058;52.010;5.546;2022-10-16T08:24:45;6.10;;;2.38;;
67140;SDS011;54058;52.010;5.546;2022-10-16T08:27:10;8.75;;;2.40;;
67140;SDS011;54058;52.010;5.546;2022-10-16T08:29:36;5.20;;;2.40;;
67140;SDS011;54058;52.010;5.546;2022-10-16T08:32:03;5.03;;;2.97;;
67140;SDS011;54058;52.010;5.546;2022-10-16T08:34:29;3.75;;;2.20;;
67140;SDS011;54058;52.010;5.546;2022-10-16T08:36:54;7.22;;;2.65;;
67140;SDS011;54058;52.010;5.546;2022-10-16T08:39:20;6.57;;;2.78;;
67140;SDS011;54058;52.010;5.546;2022-10-16T08:47:43;6.00;;;2.28;;
67140;SDS011;54058;52.010;5.546;2022-10-16T08:50:31;6.47;;;2.17;;
67140;SDS011;54058;52.010;5.546;2022-10-16T08:53:01;4.63;;;1.88;;
67140;SDS011;54058;52.010;5.546;2022-10-16T08:55:37;7.15;;;2.80;;
67140;SDS011;54058;52.010;5.546;2022-10-16T08:58:17;7.90;;;2.28;;
67140;SDS011;54058;52.010;5.546;2022-10-16T09:00:46;6.93;;;1.85;;
67140;SDS011;54058;52.010;5.546;2022-10-16T09:05:50;5.95;;;2.22;;
67140;SDS011;54058;52.010;5.546;2022-10-16T09:11:01;11.48;;;2.15;;
67140;SDS011;54058;52.010;5.546;2022-10-16T09:16:36;6.20;;;1.70;;
67140;SDS011;54058;52.010;5.546;2022-10-16T09:21:52;6.85;;;1.85;;
67140;SDS011;54058;52.010;5.546;2022-10-16T09:24:19;11.10;;;1.98;;
67140;SDS011;54058;52.010;5.546;2022-10-16T09:26:47;7.45;;;1.60;;
67140;SDS011;54058;52.010;5.546;2022-10-16T09:29:13;14.45;;;2.15;;
67140;SDS011;54058;52.010;5.546;2022-10-16T09:31:40;6.88;;;1.92;;
67140;SDS011;54058;52.010;5.546;2022-10-16T09:34:08;7.57;;;1.63;;
67140;SDS011;54058;52.010;5.546;2022-10-16T09:36:56;9.43;;;1.67;;
67140;SDS011;54058;52.010;5.546;2022-10-16T09:41:49;11.47;;;1.70;;
67140;SDS011;54058;52.010;5.546;2022-10-16T09:47:04;13.02;;;1.92;;
67140;SDS011;54058;52.010;5.546;2022-10-16T09:49:37;10.85;;;2.20;;
67140;SDS011;54058;52.010;5.546;2022-10-16T09:52:09;6.60;;;1.77;;
67140;SDS011;54058;52.010;5.546;2022-10-16T09:54:37;7.57;;;1.88;;
67140;SDS011;54058;52.010;5.546;2022-10-16T09:59:50;8.87;;;1.50;;
67140;SDS011;54058;52.010;5.546;2022-10-16T10:02:16;9.40;;;1.83;;
67140;SDS011;54058;52.010;5.546;2022-10-16T10:04:53;8.70;;;1.80;;
67140;SDS011;54058;52.010;5.546;2022-10-16T10:07:23;7.88;;;1.88;;
67140;SDS011;54058;52.010;5.546;2022-10-16T10:09:51;18.17;;;2.75;;
67140;SDS011;54058;52.010;5.546;2022-10-16T10:12:25;10.45;;;2.35;;
67140;SDS011;54058;52.010;5.546;2022-10-16T10:14:53;14.05;;;2.15;;
67140;SDS011;54058;52.010;5.546;2022-10-16T10:17:22;12.13;;;2.35;;
67140;SDS011;54058;52.010;5.546;2022-10-16T10:19:53;11.50;;;2.40;;
67140;SDS011;54058;52.010;5.546;2022-10-16T10:22:32;9.07;;;1.90;;
67140;SDS011;54058;52.010;5.546;2022-10-16T10:30:29;12.30;;;1.83;;
67140;SDS011;54058;52.010;5.546;2022-10-16T10:36:14;14.77;;;1.88;;
67140;SDS011;54058;52.010;5.546;2022-10-16T10:41:59;11.70;;;1.85;;
67140;SDS011;54058;52.010;5.546;2022-10-16T10:47:53;7.63;;;1.75;;
67140;SDS011;54058;52.010;5.546;2022-10-16T10:53:36;10.77;;;2.22;;
67140;SDS011;54058;52.010;5.546;2022-10-16T11:06:57;14.70;;;2.08;;
67140;SDS011;54058;52.010;5.546;2022-10-16T11:09:48;13.68;;;2.20;;
67140;SDS011;54058;52.010;5.546;2022-10-16T11:12:30;10.52;;;1.80;;
67140;SDS011;54058;52.010;5.546;2022-10-16T11:15:05;15.45;;;2.85;;
67140;SDS011;54058;52.010;5.546;2022-10-16T11:17:50;8.50;;;1.77;;
67140;SDS011;54058;52.010;5.546;2022-10-16T11:20:32;19.42;;;2.30;;
67140;SDS011;54058;52.010;5.546;2022-10-16T11:23:05;15.35;;;2.38;;
67140;SDS011;54058;52.010;5.546;2022-10-16T11:25:44;15.35;;;2.70;;
67140;SDS011;54058;52.010;5.546;2022-10-16T11:28:18;10.18;;;2.08;;
67140;SDS011;54058;52.010;5.546;2022-10-16T11:30:57;10.77;;;1.85;;
67140;SDS011;54058;52.010;5.546;2022-10-16T11:33:44;15.02;;;2.05;;
67140;SDS011;54058;52.010;5.546;2022-10-16T11:36:18;10.40;;;1.75;;
67140;SDS011;54058;52.010;5.546;2022-10-16T11:38:57;10.40;;;1.95;;
67140;SDS011;54058;52.010;5.546;2022-10-16T11:41:32;10.45;;;1.83;;
67140;SDS011;54058;52.010;5.546;2022-10-16T11:44:16;9.32;;;1.83;;
67140;SDS011;54058;52.010;5.546;2022-10-16T11:47:05;8.43;;;1.70;;
67140;SDS011;54058;52.010;5.546;2022-10-16T11:49:36;9.02;;;1.55;;
67140;SDS011;54058;52.010;5.546;2022-10-16T11:55:01;17.55;;;2.35;;
67140;SDS011;54058;52.010;5.546;2022-10-16T11:57:38;12.25;;;2.10;;
67140;SDS011;54058;52.010;5.546;2022-10-16T12:00:15;15.52;;;2.08;;
67140;SDS011;54058;52.010;5.546;2022-10-16T12:08:22;9.60;;;1.98;;
67140;SDS011;54058;52.010;5.546;2022-10-16T12:10:48;9.48;;;2.10;;
67140;SDS011;54058;52.010;5.546;2022-10-16T12:18:38;10.85;;;1.88;;
67140;SDS011;54058;52.010;5.546;2022-10-16T12:21:09;9.10;;;1.95;;
67140;SDS011;54058;52.010;5.546;2022-10-16T12:23:46;13.75;;;2.47;;
67140;SDS011;54058;52.010;5.546;2022-10-16T12:26:12;10.98;;;1.75;;
67140;SDS011;54058;52.010;5.546;2022-10-16T12:28:37;16.75;;;2.80;;
67140;SDS011;54058;52.010;5.546;2022-10-16T12:31:07;9.60;;;1.95;;
67140;SDS011;54058;52.010;5.546;2022-10-16T12:33:39;10.20;;;1.65;;
67140;SDS011;54058;52.010;5.546;2022-10-16T12:36:13;7.28;;;1.63;;
67140;SDS011;54058;52.010;5.546;2022-10-16T12:38:48;10.35;;;2.05;;
67140;SDS011;54058;52.010;5.546;2022-10-16T12:43:55;11.52;;;1.70;;
67140;SDS011;54058;52.010;5.546;2022-10-16T12:48:49;9.82;;;1.60;;
67140;SDS011;54058;52.010;5.546;2022-10-16T12:51:25;11.10;;;1.80;;
67140;SDS011;54058;52.010;5.546;2022-10-16T12:54:01;11.70;;;1.77;;
67140;SDS011;54058;52.010;5.546;2022-10-16T12:56:38;15.15;;;1.92;;
67140;SDS011;54058;52.010;5.546;2022-10-16T12:59:20;14.65;;;1.70;;
67140;SDS011;54058;52.010;5.546;2022-10-16T13:13:35;14.45;;;1.63;;
67140;SDS011;54058;52.010;5.546;2022-10-16T13:16:19;9.48;;;1.85;;
67140;SDS011;54058;52.010;5.546;2022-10-16T13:27:24;11.52;;;2.08;;
67140;SDS011;54058;52.010;5.546;2022-10-16T13:32:47;9.20;;;1.70;;
67140;SDS011;54058;52.010;5.546;2022-10-16T13:35:25;14.27;;;2.42;;
67140;SDS011;54058;52.010;5.546;2022-10-16T13:38:02;6.75;;;1.63;;
67140;SDS011;54058;52.010;5.546;2022-10-16T13:43:18;7.40;;;1.43;;
67140;SDS011;54058;52.010;5.546;2022-10-16T13:46:01;11.20;;;1.73;;
67140;SDS011;54058;52.010;5.546;2022-10-16T13:48:38;10.00;;;1.85;;
67140;SDS011;54058;52.010;5.546;2022-10-16T13:51:16;11.07;;;1.60;;
67140;SDS011;54058;52.010;5.546;2022-10-16T13:53:43;7.45;;;1.55;;
67140;SDS011;54058;52.010;5.546;2022-10-16T13:58:37;8.30;;;1.50;;
67140;SDS011;54058;52.010;5.546;2022-10-16T14:01:16;15.93;;;2.00;;
67140;SDS011;54058;52.010;5.546;2022-10-16T14:03:45;15.65;;;2.53;;
67140;SDS011;54058;52.010;5.546;2022-10-16T14:08:42;13.63;;;2.40;;
67140;SDS011;54058;52.010;5.546;2022-10-16T14:11:09;12.20;;;2.03;;
67140;SDS011;54058;52.010;5.546;2022-10-16T14:13:45;13.20;;;1.67;;
67140;SDS011;54058;52.010;5.546;2022-10-16T14:16:16;16.70;;;1.92;;
67140;SDS011;54058;52.010;5.546;2022-10-16T14:18:56;10.60;;;2.05;;
67140;SDS011;54058;52.010;5.546;2022-10-16T14:21:27;15.77;;;2.30;;
67140;SDS011;54058;52.010;5.546;2022-10-16T14:23:53;18.97;;;2.43;;
67140;SDS011;54058;52.010;5.546;2022-10-16T14:28:48;11.80;;;2.53;;
67140;SDS011;54058;52.010;5.546;2022-10-16T14:33:58;10.57;;;2.08;;
67140;SDS011;54058;52.010;5.546;2022-10-16T14:36:24;16.73;;;2.50;;
67140;SDS011;54058;52.010;5.546;2022-10-16T14:41:26;8.30;;;2.15;;
67140;SDS011;54058;52.010;5.546;2022-10-16T14:43:53;13.05;;;1.85;;
67140;SDS011;54058;52.010;5.546;2022-10-16T14:46:36;10.80;;;1.58;;
67140;SDS011;54058;52.010;5.546;2022-10-16T14:51:36;11.95;;;1.92;;
67140;SDS011;54058;52.010;5.546;2022-10-16T14:54:03;10.10;;;2.63;;
67140;SDS011;54058;52.010;5.546;2022-10-16T14:56:30;11.82;;;2.42;;
67140;SDS011;54058;52.010;5.546;2022-10-16T14:58:59;8.93;;;2.33;;
67140;SDS011;54058;52.010;5.546;2022-10-16T15:01:25;7.78;;;1.98;;
67140;SDS011;54058;52.010;5.546;2022-10-16T15:03:51;10.93;;;2.22;;
67140;SDS011;54058;52.010;5.546;2022-10-16T15:06:19;13.60;;;2.17;;
67140;SDS011;54058;52.010;5.546;2022-10-16T15:08:45;15.65;;;2.03;;
67140;SDS011;54058;52.010;5.546;2022-10-16T15:11:17;9.27;;;1.88;;
67140;SDS011;54058;52.010;5.546;2022-10-16T15:13:44;17.33;;;1.80;;
67140;SDS011;54058;52.010;5.546;2022-10-16T15:16:11;16.55;;;1.75;;
67140;SDS011;54058;52.010;5.546;2022-10-16T15:18:38;9.45;;;1.70;;
67140;SDS011;54058;52.010;5.546;2022-10-16T15:21:03;11.13;;;2.10;;
67140;SDS011;54058;52.010;5.546;2022-10-16T15:23:29;15.52;;;2.22;;
67140;SDS011;54058;52.010;5.546;2022-10-16T15:25:55;11.18;;;1.98;;
67140;SDS011;54058;52.010;5.546;2022-10-16T15:28:21;12.52;;;2.72;;
67140;SDS011;54058;52.010;5.546;2022-10-16T15:30:52;17.40;;;2.67;;
67140;SDS011;54058;52.010;5.546;2022-10-16T15:33:20;16.35;;;3.30;;
67140;SDS011;54058;52.010;5.546;2022-10-16T15:35:48;11.13;;;3.30;;
67140;SDS011;54058;52.010;5.546;2022-10-16T15:38:15;14.73;;;3.63;;
67140;SDS011;54058;52.010;5.546;2022-10-16T15:40:42;11.02;;;2.58;;
67140;SDS011;54058;52.010;5.546;2022-10-16T15:43:08;11.00;;;2.83;;
67140;SDS011;54058;52.010;5.546;2022-10-16T15:45:34;15.77;;;3.25;;
67140;SDS011;54058;52.010;5.546;2022-10-16T15:48:00;17.88;;;4.65;;
67140;SDS011;54058;52.010;5.546;2022-10-16T15:50:26;25.92;;;8.55;;
67140;SDS011;54058;52.010;5.546;2022-10-16T15:52:51;16.30;;;6.07;;
67140;SDS011;54058;52.010;5.546;2022-10-16T15:55:17;28.52;;;11.73;;
67140;SDS011;54058;52.010;5.546;2022-10-16T15:57:43;24.42;;;11.13;;
67140;SDS011;54058;52.010;5.546;2022-10-16T16:00:17;33.63;;;13.05;;
67140;SDS011;54058;52.010;5.546;2022-10-16T16:02:51;33.35;;;14.45;;
67140;SDS011;54058;52.010;5.546;2022-10-16T16:05:18;21.73;;;7.13;;
67140;SDS011;54058;52.010;5.546;2022-10-16T16:07:45;16.50;;;4.72;;
67140;SDS011;54058;52.010;5.546;2022-10-16T16:10:11;19.92;;;4.38;;
67140;SDS011;54058;52.010;5.546;2022-10-16T16:12:37;12.13;;;3.63;;
67140;SDS011;54058;52.010;5.546;2022-10-16T16:15:06;12.25;;;3.42;;
67140;SDS011;54058;52.010;5.546;2022-10-16T16:17:33;9.57;;;3.17;;
67140;SDS011;54058;52.010;5.546;2022-10-16T16:19:59;17.87;;;5.60;;
67140;SDS011;54058;52.010;5.546;2022-10-16T16:22:25;13.02;;;4.22;;
67140;SDS011;54058;52.010;5.546;2022-10-16T16:24:51;12.00;;;3.08;;
67140;SDS011;54058;52.010;5.546;2022-10-16T16:27:17;12.40;;;4.05;;
67140;SDS011;54058;52.010;5.546;2022-10-16T16:29:44;17.23;;;3.45;;
67140;SDS011;54058;52.010;5.546;2022-10-16T16:32:10;15.00;;;3.67;;
67140;SDS011;54058;52.010;5.546;2022-10-16T16:34:35;15.15;;;2.67;;
67140;SDS011;54058;52.010;5.546;2022-10-16T16:37:01;16.35;;;2.75;;
67140;SDS011;54058;52.010;5.546;2022-10-16T16:39:27;25.65;;;3.42;;
67140;SDS011;54058;52.010;5.546;2022-10-16T16:41:54;10.65;;;3.40;;
67140;SDS011;54058;52.010;5.546;2022-10-16T16:44:20;16.65;;;2.88;;
67140;SDS011;54058;52.010;5.546;2022-10-16T16:46:46;24.45;;;2.60;;
67140;SDS011;54058;52.010;5.546;2022-10-16T16:49:12;13.75;;;2.30;;
67140;SDS011;54058;52.010;5.546;2022-10-16T16:51:39;5.43;;;2.10;;
67140;SDS011;54058;52.010;5.546;2022-10-16T16:54:05;11.45;;;2.38;;
67140;SDS011;54058;52.010;5.546;2022-10-16T16:56:32;18.33;;;3.20;;
67140;SDS011;54058;52.010;5.546;2022-10-16T16:58:58;14.60;;;3.10;;
67140;SDS011;54058;52.010;5.546;2022-10-16T17:01:24;15.63;;;3.78;;
67140;SDS011;54058;52.010;5.546;2022-10-16T17:03:52;17.50;;;3.13;;
67140;SDS011;54058;52.010;5.546;2022-10-16T17:06:20;12.70;;;3.35;;